Time;durP1;ratioP1;P1;durP2;ratioP2;P2;SDS_P1;SDS_P2;PMS_P1;PMS_P2;Temp;Humidity;BMP_temperature;BMP_pressure;BME280_temperature;BME280_humidity;BME280_pressure;Samples;Min_cycle;Max_cycle;Signal;HPM_P1;HPM_P2
2023/03/15 00:01:33;;;;;;;3.00;1.30;;;3.60;99.90;;;;;;4984119;28;20066;-93
2023/03/15 00:04:06;;;;;;;3.27;1.57;;;3.70;99.90;;;;;;4983693;28;20100;-93
2023/03/15 00:06:33;;;;;;;4.13;1.50;;;3.70;99.90;;;;;;4983473;28;20750;-93
2023/03/15 00:09:02;;;;;;;4.10;1.50;;;3.70;99.90;;;;;;4983325;28;20031;-94
2023/03/15 00:11:32;;;;;;;4.07;1.70;;;3.70;99.90;;;;;;4986430;28;20470;-93
2023/03/15 00:13:58;;;;;;;3.20;1.50;;;3.80;99.90;;;;;;4987726;28;20034;-95
2023/03/15 00:16:26;;;;;;;5.67;1.70;;;3.80;99.90;;;;;;4989527;28;20528;-96
2023/03/15 00:18:53;;;;;;;3.07;1.50;;;3.80;99.90;;;;;;4995107;28;20038;-95
2023/03/15 00:21:22;;;;;;;2.77;1.43;;;3.90;99.90;;;;;;5010820;23;20515;-95
2023/03/15 00:23:56;;;;;;;3.27;1.53;;;3.90;99.90;;;;;;4992982;28;20033;-96
2023/03/15 00:26:25;;;;;;;6.35;1.67;;;3.90;99.90;;;;;;4998693;28;20034;-95
2023/03/15 00:28:53;;;;;;;3.87;1.30;;;3.80;99.90;;;;;;4988533;28;20045;-95
2023/03/15 00:31:24;;;;;;;4.00;1.67;;;3.80;99.90;;;;;;4970599;28;20041;-95
2023/03/15 00:33:57;;;;;;;3.20;1.60;;;3.70;99.90;;;;;;4988848;28;20050;-96
2023/03/15 00:36:23;;;;;;;4.13;1.63;;;3.70;99.90;;;;;;4987200;28;20822;-94
2023/03/15 00:38:56;;;;;;;4.20;1.70;;;3.60;99.90;;;;;;4989890;28;20098;-95
2023/03/15 00:41:24;;;;;;;4.07;1.70;;;3.50;99.90;;;;;;4988305;28;20023;-95
2023/03/15 00:44:06;;;;;;;3.10;1.63;;;3.50;99.90;;;;;;4982327;28;21370;-95
2023/03/15 00:46:34;;;;;;;3.30;1.50;;;3.30;99.90;;;;;;4986597;28;20430;-95
2023/03/15 00:49:02;;;;;;;2.97;1.73;;;3.00;99.90;;;;;;4983549;28;20444;-94
2023/03/15 00:51:33;;;;;;;1.87;1.53;;;2.60;99.90;;;;;;4997996;28;20041;-96
2023/03/15 00:54:06;;;;;;;2.30;1.60;;;2.30;99.90;;;;;;5010587;28;20046;-96
2023/03/15 00:56:35;;;;;;;1.87;1.53;;;2.10;99.90;;;;;;5009140;28;20034;-96
2023/03/15 00:59:03;;;;;;;2.60;1.40;;;2.00;99.90;;;;;;5013981;28;20030;-95
2023/03/15 01:01:34;;;;;;;3.83;1.77;;;1.90;99.90;;;;;;5001922;28;20045;-95
2023/03/15 01:04:06;;;;;;;2.17;1.37;;;1.80;99.90;;;;;;4994468;28;20105;-95
2023/03/15 01:06:32;;;;;;;1.87;1.40;;;1.70;99.90;;;;;;4988400;28;20424;-94
2023/03/15 01:09:06;;;;;;;2.23;1.20;;;1.70;99.90;;;;;;4981724;28;20035;-94
2023/03/15 01:11:34;;;;;;;1.90;1.37;;;1.60;99.90;;;;;;4980287;28;20061;-93
2023/03/15 01:14:03;;;;;;;1.40;1.10;;;1.50;99.90;;;;;;4978687;28;20122;-92
2023/03/15 01:16:29;;;;;;;1.50;1.10;;;1.50;99.90;;;;;;4977162;28;20114;-91
2023/03/15 01:18:55;;;;;;;1.63;1.30;;;1.50;99.90;;;;;;4976373;28;20044;-91
2023/03/15 01:21:22;;;;;;;2.80;1.40;;;1.40;99.90;;;;;;4976808;28;20934;-91
2023/03/15 01:23:48;;;;;;;2.60;1.37;;;1.40;99.90;;;;;;4975966;28;20035;-93
2023/03/15 01:26:15;;;;;;;1.77;1.20;;;1.40;99.90;;;;;;4959348;28;20093;-92
2023/03/15 01:28:45;;;;;;;1.60;1.07;;;1.50;99.90;;;;;;4977734;28;20034;-94
2023/03/15 01:31:21;;;;;;;2.37;1.20;;;1.40;99.90;;;;;;4979063;28;20462;-93
2023/03/15 01:33:47;;;;;;;1.50;1.17;;;1.50;99.90;;;;;;4979477;28;20050;-94
2023/03/15 01:36:13;;;;;;;2.13;1.30;;;1.50;99.90;;;;;;4982826;28;20415;-94
2023/03/15 01:38:38;;;;;;;1.27;1.03;;;1.50;99.90;;;;;;4982105;28;20030;-93
2023/03/15 01:41:04;;;;;;;1.37;1.20;;;1.40;99.90;;;;;;4983465;28;20030;-93
2023/03/15 01:43:33;;;;;;;2.20;1.50;;;1.50;99.90;;;;;;4979614;28;20035;-94
2023/03/15 01:46:06;;;;;;;1.83;1.40;;;1.50;99.90;;;;;;4978828;28;20037;-93
2023/03/15 01:48:39;;;;;;;1.70;1.20;;;1.50;99.90;;;;;;4980754;28;20015;-92
2023/03/15 01:51:12;;;;;;;2.47;1.40;;;1.50;99.90;;;;;;4964501;28;20026;-92
2023/03/15 01:53:42;;;;;;;1.13;1.03;;;1.50;99.90;;;;;;4981396;28;20076;-94
2023/03/15 01:56:09;;;;;;;2.13;1.20;;;1.60;99.90;;;;;;4982157;28;20030;-91
2023/03/15 01:58:37;;;;;;;1.57;1.20;;;1.60;99.90;;;;;;4980704;28;20673;-92
2023/03/15 02:01:03;;;;;;;1.60;1.17;;;1.70;99.90;;;;;;4979715;28;20038;-91
2023/03/15 02:03:35;;;;;;;2.00;1.40;;;1.70;99.90;;;;;;4978293;28;20031;-91
2023/03/15 02:06:06;;;;;;;4.87;1.50;;;1.80;99.90;;;;;;4979256;28;20477;-91
2023/03/15 02:08:36;;;;;;;1.87;1.40;;;1.80;99.90;;;;;;4977206;28;20485;-91
2023/03/15 02:11:04;;;;;;;2.00;1.30;;;1.90;99.90;;;;;;4980021;28;20086;-90
2023/03/15 02:13:32;;;;;;;2.93;1.80;;;1.80;99.90;;;;;;4979060;28;20057;-90
2023/03/15 02:16:00;;;;;;;2.27;1.70;;;1.80;99.90;;;;;;4977903;28;20037;-91
2023/03/15 02:18:26;;;;;;;2.40;1.80;;;1.90;99.90;;;;;;4978567;28;20032;-90
2023/03/15 02:21:06;;;;;;;4.17;1.80;;;1.90;99.90;;;;;;4979060;28;20038;-91
2023/03/15 02:23:32;;;;;;;2.53;1.73;;;1.90;99.90;;;;;;4977305;28;20038;-90
2023/03/15 02:26:22;;;;;;;2.80;2.00;;;1.90;99.90;;;;;;4978593;28;20231;-89
2023/03/15 02:28:48;;;;;;;2.57;2.30;;;1.90;99.90;;;;;;4977275;28;20496;-90
2023/03/15 02:31:14;;;;;;;3.03;2.03;;;1.90;99.90;;;;;;4977754;28;20033;-89
2023/03/15 02:33:46;;;;;;;2.77;2.47;;;1.90;99.90;;;;;;4977730;28;20026;-89
2023/03/15 02:36:22;;;;;;;3.33;2.30;;;2.00;99.90;;;;;;4977952;28;20386;-89
2023/03/15 02:38:48;;;;;;;2.70;2.40;;;1.90;99.90;;;;;;4976922;28;20042;-89
2023/03/15 02:41:25;;;;;;;2.50;2.23;;;1.90;99.90;;;;;;4977786;28;20046;-90
2023/03/15 02:43:54;;;;;;;2.70;2.10;;;1.90;99.90;;;;;;4977536;28;20066;-90
2023/03/15 02:46:21;;;;;;;5.53;2.40;;;1.90;99.90;;;;;;4977663;28;20121;-90
2023/03/15 02:48:52;;;;;;;3.40;2.10;;;1.80;99.90;;;;;;4976949;28;20057;-90
2023/03/15 02:51:23;;;;;;;3.40;2.43;;;1.70;99.90;;;;;;4960586;28;20097;-91
2023/03/15 02:53:51;;;;;;;4.60;2.53;;;1.70;99.90;;;;;;4978385;28;20150;-89
2023/03/15 02:56:16;;;;;;;5.70;2.77;;;1.60;99.90;;;;;;4978211;28;20038;-90
2023/03/15 02:58:45;;;;;;;4.33;2.47;;;1.60;99.90;;;;;;4977499;28;20026;-90
2023/03/15 03:01:12;;;;;;;5.03;2.80;;;1.50;99.90;;;;;;4977283;28;20449;-91
2023/03/15 03:03:39;;;;;;;4.23;2.43;;;1.50;99.90;;;;;;4978030;28;20409;-91
2023/03/15 03:06:05;;;;;;;3.07;2.20;;;1.50;99.90;;;;;;4978514;28;20093;-90
2023/03/15 03:08:31;;;;;;;2.83;2.23;;;1.50;99.90;;;;;;4977479;28;20034;-90
2023/03/15 03:10:56;;;;;;;3.30;2.30;;;1.40;99.90;;;;;;4961235;28;20061;-91
2023/03/15 03:13:22;;;;;;;3.50;2.37;;;1.40;99.90;;;;;;4978564;28;20026;-91
2023/03/15 03:15:57;;;;;;;3.27;2.20;;;1.40;99.90;;;;;;4978305;28;20030;-91
2023/03/15 03:18:26;;;;;;;;;;;1.40;99.90;;;;;;4979501;28;20030;-93
2023/03/15 03:20:56;;;;;;;4.83;2.40;;;1.30;99.90;;;;;;4978064;28;19940;-91
2023/03/15 03:23:25;;;;;;;3.87;2.40;;;1.30;99.90;;;;;;4978891;28;20034;-92
2023/03/15 03:25:52;;;;;;;5.13;2.50;;;1.30;99.90;;;;;;4978682;28;20038;-92
2023/03/15 03:28:23;;;;;;;5.10;2.70;;;1.30;99.90;;;;;;4977823;28;20062;-91
2023/03/15 03:30:49;;;;;;;7.73;3.00;;;1.30;99.90;;;;;;4978222;28;20102;-91
2023/03/15 03:33:15;;;;;;;4.83;2.80;;;1.20;99.90;;;;;;4978899;28;20030;-92
2023/03/15 03:35:40;;;;;;;6.13;2.93;;;1.30;99.90;;;;;;4977960;28;20030;-91
2023/03/15 03:38:07;;;;;;;5.10;2.80;;;1.20;99.90;;;;;;4964923;28;20059;-91
2023/03/15 03:40:33;;;;;;;6.70;2.87;;;1.20;99.90;;;;;;4978265;28;20566;-92
2023/03/15 03:42:58;;;;;;;5.07;3.03;;;1.20;99.90;;;;;;4979020;28;20023;-92
2023/03/15 03:45:24;;;;;;;4.93;2.70;;;1.20;99.90;;;;;;4979090;28;20496;-90
2023/03/15 03:47:50;;;;;;;3.93;2.43;;;1.20;99.90;;;;;;4979043;28;20501;-91
2023/03/15 03:50:16;;;;;;;4.80;2.57;;;1.20;99.90;;;;;;4961606;28;20433;-92
2023/03/15 03:52:44;;;;;;;3.53;2.57;;;1.20;99.90;;;;;;4977308;28;20113;-91
2023/03/15 03:55:13;;;;;;;3.90;2.77;;;1.20;99.90;;;;;;4980015;28;20030;-92
2023/03/15 03:57:40;;;;;;;5.23;2.93;;;1.10;99.90;;;;;;4978083;28;20093;-92
2023/03/15 04:00:07;;;;;;;4.67;2.87;;;1.10;99.90;;;;;;4979277;28;20034;-90
2023/03/15 04:02:33;;;;;;;3.87;2.80;;;1.10;99.90;;;;;;4976619;28;20077;-91
2023/03/15 04:04:58;;;;;;;4.03;3.10;;;1.10;99.90;;;;;;4978593;28;20034;-92
2023/03/15 04:07:24;;;;;;;5.40;3.53;;;1.00;99.90;;;;;;4977635;28;20034;-92
2023/03/15 04:09:52;;;;;;;7.20;2.93;;;1.00;99.90;;;;;;4978143;28;20117;-91
2023/03/15 04:12:17;;;;;;;4.70;3.07;;;1.00;99.90;;;;;;4977729;28;20502;-93
2023/03/15 04:14:43;;;;;;;4.93;3.03;;;1.00;99.90;;;;;;4978074;28;20034;-91
2023/03/15 04:17:09;;;;;;;4.23;2.73;;;0.90;99.90;;;;;;4977978;28;20076;-93
2023/03/15 04:19:34;;;;;;;3.60;2.90;;;0.90;99.90;;;;;;4977726;28;20034;-92
2023/03/15 04:22:05;;;;;;;4.20;3.73;;;0.90;99.90;;;;;;4977749;28;20061;-93
2023/03/15 04:24:35;;;;;;;4.67;3.47;;;0.90;99.90;;;;;;4979619;28;20242;-93
2023/03/15 04:27:01;;;;;;;5.97;3.70;;;0.90;99.90;;;;;;4980315;28;20093;-93
2023/03/15 04:29:27;;;;;;;5.87;4.30;;;0.90;99.90;;;;;;4980173;28;20061;-92
2023/03/15 04:31:53;;;;;;;8.63;4.40;;;1.00;99.90;;;;;;4980697;28;20035;-93
2023/03/15 04:34:18;;;;;;;5.30;3.83;;;0.90;99.90;;;;;;4980206;28;20108;-93
2023/03/15 04:36:44;;;;;;;8.00;3.97;;;0.90;99.90;;;;;;4981334;28;20153;-93
2023/03/15 04:39:11;;;;;;;7.03;3.20;;;0.90;99.90;;;;;;4978871;28;20023;-92
2023/03/15 04:41:38;;;;;;;6.13;3.20;;;0.90;99.90;;;;;;4980201;28;20041;-93
2023/03/15 04:44:04;;;;;;;7.50;3.23;;;0.90;99.90;;;;;;4979313;28;20393;-93
2023/03/15 04:46:32;;;;;;;5.20;2.50;;;0.90;99.90;;;;;;4980245;28;20034;-92
2023/03/15 04:48:58;;;;;;;6.87;3.03;;;0.80;99.90;;;;;;4978767;28;20112;-92
2023/03/15 04:51:24;;;;;;;4.03;2.40;;;0.80;99.90;;;;;;4981691;28;20034;-92
2023/03/15 04:53:50;;;;;;;6.27;2.47;;;0.80;99.90;;;;;;4983611;28;20060;-93
2023/03/15 04:56:15;;;;;;;7.17;2.80;;;0.80;99.90;;;;;;4982895;28;20022;-94
2023/03/15 04:58:41;;;;;;;6.10;2.33;;;0.80;99.90;;;;;;4982821;28;20029;-94
2023/03/15 05:01:06;;;;;;;7.53;2.33;;;0.70;99.90;;;;;;4982534;28;20050;-94
2023/03/15 05:03:32;;;;;;;3.50;2.10;;;0.70;99.90;;;;;;4983481;28;20022;-94
2023/03/15 05:05:57;;;;;;;5.30;2.63;;;0.70;99.90;;;;;;4985763;28;20513;-95
2023/03/15 05:08:23;;;;;;;4.77;2.20;;;0.70;99.90;;;;;;4982750;28;21594;-95
2023/03/15 05:10:48;;;;;;;6.87;2.60;;;0.60;99.90;;;;;;4984827;28;20088;-94
2023/03/15 05:13:14;;;;;;;6.30;2.50;;;0.70;99.90;;;;;;4974903;28;20208;-94
2023/03/15 05:15:40;;;;;;;6.57;2.70;;;0.70;99.90;;;;;;4993585;28;20462;-95
2023/03/15 05:18:05;;;;;;;5.27;2.30;;;0.70;99.90;;;;;;4999006;28;20078;-96
2023/03/15 05:20:31;;;;;;;7.13;2.63;;;0.70;99.90;;;;;;5004759;28;20049;-95
2023/03/15 05:22:57;;;;;;;9.10;3.10;;;0.70;99.90;;;;;;5009472;28;20098;-93
2023/03/15 05:25:23;;;;;;;8.10;2.77;;;0.70;99.90;;;;;;5004825;28;20023;-96
2023/03/15 05:30:20;;;;;;;7.63;2.60;;;0.80;99.90;;;;;;5126081;23;20122;-96
2023/03/15 05:32:46;;;;;;;8.87;3.03;;;0.80;99.90;;;;;;5006021;28;20042;-96
2023/03/15 05:35:12;;;;;;;6.23;2.87;;;0.80;99.90;;;;;;5013348;28;20070;-96
2023/03/15 05:37:38;;;;;;;5.73;3.03;;;0.80;99.90;;;;;;5010232;28;20117;-96
2023/03/15 05:40:06;;;;;;;7.50;3.47;;;0.70;99.90;;;;;;5011480;28;20034;-96
2023/03/15 05:42:35;;;;;;;10.50;3.50;;;0.70;99.90;;;;;;5011203;28;20066;-96
2023/03/15 05:45:01;;;;;;;8.13;3.10;;;0.70;99.90;;;;;;5011776;28;20049;-96
2023/03/15 05:47:26;;;;;;;7.03;3.40;;;0.80;99.90;;;;;;5006243;28;20058;-95
2023/03/15 05:49:52;;;;;;;10.07;3.50;;;0.70;99.90;;;;;;5010620;28;20014;-96
2023/03/15 05:52:17;;;;;;;9.00;4.50;;;0.70;99.90;;;;;;5026163;28;20076;-96
2023/03/15 05:54:43;;;;;;;10.27;3.10;;;0.80;99.90;;;;;;5006589;28;20042;-95
2023/03/15 05:57:09;;;;;;;6.67;3.47;;;0.70;99.90;;;;;;4999677;28;20034;-95
2023/03/15 05:59:35;;;;;;;11.57;4.23;;;0.70;99.90;;;;;;4992812;28;20034;-83
2023/03/15 06:02:03;;;;;;;7.63;3.63;;;0.70;99.90;;;;;;4983179;28;20038;-95
2023/03/15 06:04:28;;;;;;;7.97;3.43;;;0.70;99.90;;;;;;5013371;28;20034;-88
2023/03/15 06:06:54;;;;;;;7.20;3.43;;;0.70;99.90;;;;;;5034527;23;20057;-96
2023/03/15 06:09:24;;;;;;;7.20;3.73;;;0.70;99.90;;;;;;5011584;28;20023;-96
2023/03/15 06:12:06;;;;;;;7.10;3.53;;;0.70;99.90;;;;;;4994926;28;20037;-96
2023/03/15 06:14:34;;;;;;;11.03;4.93;;;0.70;99.90;;;;;;5007934;28;20027;-96
2023/03/15 06:17:03;;;;;;;7.97;4.07;;;0.70;99.90;;;;;;5020011;23;20050;-95
2023/03/15 06:19:36;;;;;;;7.63;4.30;;;0.80;99.90;;;;;;5015064;23;20081;-96
2023/03/15 06:22:04;;;;;;;9.93;4.23;;;0.80;99.90;;;;;;5082110;23;20078;-95
2023/03/15 06:24:35;;;;;;;8.83;3.83;;;0.80;99.90;;;;;;4971419;28;20047;-94
2023/03/15 06:27:03;;;;;;;10.80;4.17;;;0.80;99.90;;;;;;4988517;23;20030;-96
2023/03/15 06:29:36;;;;;;;9.27;4.77;;;0.80;99.90;;;;;;5250996;23;20901;-96
2023/03/15 06:32:05;;;;;;;8.77;4.53;;;0.80;99.90;;;;;;4978125;28;20047;-96
2023/03/15 06:34:33;;;;;;;7.60;4.50;;;0.80;99.90;;;;;;4984031;28;20031;-96
2023/03/15 06:37:06;;;;;;;9.23;4.63;;;0.90;99.90;;;;;;4987098;28;20034;-96
2023/03/15 06:39:34;;;;;;;10.70;4.23;;;0.90;99.90;;;;;;4975806;28;20137;-92
2023/03/15 06:42:03;;;;;;;8.90;4.80;;;0.90;99.90;;;;;;4958696;28;20039;-91
2023/03/15 06:44:36;;;;;;;8.77;4.80;;;1.00;99.90;;;;;;4959734;28;20043;-90
2023/03/15 06:47:02;;;;;;;9.77;5.37;;;1.00;99.90;;;;;;4956902;28;20486;-92
2023/03/15 06:49:30;;;;;;;7.73;5.03;;;1.00;99.90;;;;;;4966798;28;20035;-95
2023/03/15 06:51:56;;;;;;;10.53;5.40;;;1.10;99.90;;;;;;4990498;28;20028;-96
2023/03/15 06:54:24;;;;;;;11.53;5.33;;;1.10;99.90;;;;;;4981557;28;20026;-96
2023/03/15 06:56:49;;;;;;;11.67;6.57;;;1.10;99.90;;;;;;4971988;28;20038;-95
2023/03/15 06:59:15;;;;;;;13.77;6.60;;;1.00;99.90;;;;;;4980312;28;20027;-95
2023/03/15 07:01:41;;;;;;;12.80;6.10;;;1.00;99.90;;;;;;4980361;28;20058;-95
2023/03/15 07:04:08;;;;;;;14.33;6.67;;;1.00;99.90;;;;;;4973906;28;20035;-96
2023/03/15 07:06:34;;;;;;;13.00;7.20;;;1.10;99.90;;;;;;4973879;28;20034;-94
2023/03/15 07:09:07;;;;;;;12.07;6.77;;;1.10;99.90;;;;;;4966503;28;20105;-94
2023/03/15 07:11:33;;;;;;;11.07;5.93;;;1.10;99.90;;;;;;4961437;28;20027;-93
2023/03/15 07:14:01;;;;;;;12.93;6.80;;;1.20;99.90;;;;;;4961213;28;21434;-93
2023/03/15 07:16:26;;;;;;;13.07;7.10;;;1.20;99.90;;;;;;4962403;28;20766;-94
2023/03/15 07:18:55;;;;;;;10.47;5.83;;;1.30;99.90;;;;;;4968251;28;20038;-95
2023/03/15 07:21:21;;;;;;;13.63;7.23;;;1.50;99.90;;;;;;4971569;28;20054;-95
2023/03/15 07:23:46;;;;;;;11.70;7.30;;;1.50;99.90;;;;;;4967438;28;20133;-95
2023/03/15 07:26:12;;;;;;;12.83;7.23;;;1.60;99.90;;;;;;4968114;28;20026;-95
2023/03/15 07:28:37;;;;;;;12.80;7.60;;;1.80;99.90;;;;;;4963007;28;20038;-94
2023/03/15 07:31:04;;;;;;;17.13;8.30;;;1.70;99.90;;;;;;4964303;28;20133;-93
2023/03/15 07:33:32;;;;;;;11.77;7.27;;;1.80;99.90;;;;;;4963538;28;20026;-93
2023/03/15 07:35:58;;;;;;;13.10;7.03;;;1.90;99.90;;;;;;4963789;28;20088;-93
2023/03/15 07:38:27;;;;;;;15.67;7.97;;;1.90;99.90;;;;;;4962945;28;20185;-94
2023/03/15 07:40:53;;;;;;;14.37;7.30;;;2.00;99.90;;;;;;4961119;28;20061;-93
2023/03/15 07:43:19;;;;;;;13.33;8.50;;;2.20;99.90;;;;;;4954439;28;20396;-92
2023/03/15 07:45:45;;;;;;;16.57;7.63;;;2.20;99.90;;;;;;4953889;28;20031;-92
2023/03/15 07:48:10;;;;;;;14.17;7.73;;;2.20;99.90;;;;;;4954066;28;20109;-93
2023/03/15 07:50:36;;;;;;;12.47;7.80;;;2.30;99.90;;;;;;4956585;28;20057;-94
2023/03/15 07:53:03;;;;;;;18.67;7.53;;;2.30;99.90;;;;;;4972573;28;20113;-93
2023/03/15 07:55:30;;;;;;;14.43;7.80;;;2.50;99.90;;;;;;4956149;28;20058;-92
2023/03/15 07:57:55;;;;;;;14.47;7.87;;;2.50;99.90;;;;;;4953221;28;20113;-92
2023/03/15 08:00:21;;;;;;;15.70;7.50;;;2.60;99.90;;;;;;4954297;28;20038;-93
2023/03/15 08:02:47;;;;;;;14.47;7.93;;;2.70;99.90;;;;;;4952585;28;20042;-92
2023/03/15 08:05:13;;;;;;;15.83;7.77;;;2.70;99.90;;;;;;4953462;28;20624;-91
2023/03/15 08:07:39;;;;;;;13.23;7.07;;;2.70;99.90;;;;;;4951085;28;20081;-92
2023/03/15 08:10:05;;;;;;;12.83;7.13;;;2.80;99.90;;;;;;4953544;28;20038;-91
2023/03/15 08:12:31;;;;;;;13.33;6.73;;;2.90;99.90;;;;;;4953170;28;20554;-92
2023/03/15 08:14:57;;;;;;;13.83;7.70;;;2.80;99.90;;;;;;4954239;28;20111;-93
2023/03/15 08:17:23;;;;;;;14.10;7.70;;;2.90;99.90;;;;;;4955270;28;20065;-94
2023/03/15 08:19:51;;;;;;;11.60;6.70;;;2.80;99.90;;;;;;4954335;28;20555;-92
2023/03/15 08:22:16;;;;;;;13.53;6.40;;;2.90;99.90;;;;;;4951922;28;21097;-92
2023/03/15 08:24:42;;;;;;;14.03;6.87;;;2.90;99.90;;;;;;4951711;28;20046;-90
2023/03/15 08:27:08;;;;;;;13.07;6.30;;;3.00;99.90;;;;;;4953215;28;20042;-92
2023/03/15 08:29:34;;;;;;;11.60;6.00;;;3.10;99.90;;;;;;4952520;28;20521;-91
2023/03/15 08:32:00;;;;;;;12.90;6.60;;;3.40;99.90;;;;;;4955006;28;20039;-92
2023/03/15 08:34:25;;;;;;;15.60;6.80;;;3.30;99.90;;;;;;4954787;28;20062;-92
2023/03/15 08:36:53;;;;;;;16.03;6.40;;;3.40;99.90;;;;;;4956423;28;20102;-94
2023/03/15 08:39:22;;;;;;;13.07;5.83;;;3.50;99.90;;;;;;4957311;28;20039;-95
2023/03/15 08:41:49;;;;;;;17.87;7.87;;;3.50;99.90;;;;;;4961455;28;20153;-96
2023/03/15 08:44:14;;;;;;;13.23;5.77;;;3.60;99.90;;;;;;4966028;28;20029;-94
2023/03/15 08:46:40;;;;;;;15.20;6.77;;;3.60;99.90;;;;;;4960441;28;20094;-95
2023/03/15 08:49:05;;;;;;;12.13;5.47;;;3.70;99.90;;;;;;4964649;28;20020;-94
2023/03/15 08:51:33;;;;;;;11.40;5.07;;;3.90;99.90;;;;;;4960509;28;20031;-94
2023/03/15 08:54:02;;;;;;;11.63;5.30;;;4.10;99.90;;;;;;4959842;28;20057;-94
2023/03/15 08:56:30;;;;;;;10.83;4.73;;;4.20;99.90;;;;;;4958024;28;20118;-91
2023/03/15 08:58:56;;;;;;;13.60;5.23;;;4.50;99.90;;;;;;4953762;28;20181;-92
2023/03/15 09:01:21;;;;;;;10.30;5.03;;;4.50;99.90;;;;;;4956002;28;20030;-92
2023/03/15 09:03:47;;;;;;;15.03;4.33;;;4.60;99.90;;;;;;4952580;28;20031;-92
2023/03/15 09:06:13;;;;;;;11.60;4.80;;;4.50;99.90;;;;;;4952898;28;20874;-92
2023/03/15 09:08:38;;;;;;;7.87;4.60;;;4.60;99.90;;;;;;4952204;28;20176;-91
2023/03/15 09:11:04;;;;;;;10.80;4.37;;;4.70;99.90;;;;;;4952786;28;20686;-92
2023/03/15 09:13:30;;;;;;;11.27;4.63;;;4.70;99.90;;;;;;4950534;28;20031;-90
2023/03/15 09:15:56;;;;;;;11.30;4.50;;;4.70;99.90;;;;;;4952549;28;20148;-90
2023/03/15 09:18:25;;;;;;;13.43;4.63;;;4.60;99.90;;;;;;4951800;28;20026;-91
2023/03/15 09:20:51;;;;;;;11.43;4.70;;;4.70;99.90;;;;;;4953162;28;21408;-90
2023/03/15 09:23:16;;;;;;;12.07;4.23;;;4.70;99.90;;;;;;4951457;28;20031;-91
2023/03/15 09:25:44;;;;;;;13.23;4.43;;;4.80;99.90;;;;;;4951972;28;20138;-90
2023/03/15 09:28:10;;;;;;;7.33;3.60;;;4.80;99.90;;;;;;4949922;28;20089;-90
2023/03/15 09:30:37;;;;;;;10.30;4.27;;;5.00;99.90;;;;;;4952437;28;20154;-92
2023/03/15 09:33:03;;;;;;;12.30;4.07;;;5.10;99.90;;;;;;4950771;28;20043;-90
2023/03/15 09:35:29;;;;;;;9.57;4.10;;;5.00;99.90;;;;;;4951966;28;20066;-90
2023/03/15 09:37:55;;;;;;;12.27;3.77;;;5.20;99.90;;;;;;4949928;28;20039;-90
2023/03/15 09:40:30;;;;;;;14.33;3.80;;;5.30;99.90;;;;;;4952067;28;20030;-92
2023/03/15 09:43:07;;;;;;;;;;;5.40;99.90;;;;;;4952349;28;20062;-90
2023/03/15 09:46:13;;;;;;;13.00;3.90;;;5.40;99.90;;;;;;4952758;28;20020;-90
2023/03/15 09:49:03;;;;;;;14.27;3.95;;;5.40;99.90;;;;;;4948161;28;20173;-90
2023/03/15 09:51:46;;;;;;;6.97;2.80;;;5.50;99.90;;;;;;4950919;28;20739;-91
2023/03/15 09:54:17;;;;;;;8.13;3.73;;;5.30;99.90;;;;;;4951628;28;21522;-91
2023/03/15 09:56:55;;;;;;;12.13;3.80;;;5.00;99.90;;;;;;4952096;28;21499;-90
2023/03/15 09:59:30;;;;;;;9.30;3.80;;;5.00;99.90;;;;;;4948824;28;20859;-91
2023/03/15 10:01:57;;;;;;;;;;;5.20;99.90;;;;;;4952605;28;20043;-90
2023/03/15 10:04:29;;;;;;;10.30;3.67;;;5.20;99.90;;;;;;4951345;28;19918;-90
2023/03/15 10:06:57;;;;;;;8.57;3.70;;;5.20;99.90;;;;;;4950732;28;20023;-92
2023/03/15 10:09:26;;;;;;;10.03;3.13;;;5.10;99.90;;;;;;4952558;28;21132;-89
2023/03/15 10:12:02;;;;;;;12.07;3.83;;;5.10;99.90;;;;;;4956682;28;20030;-90
2023/03/15 10:14:33;;;;;;;9.73;3.10;;;5.30;99.90;;;;;;4955278;28;20166;-89
2023/03/15 10:17:02;;;;;;;14.43;3.20;;;5.60;99.90;;;;;;4956397;28;20042;-91
2023/03/15 10:19:44;;;;;;;7.53;3.10;;;5.80;99.90;;;;;;4953701;28;20516;-89
2023/03/15 10:22:12;;;;;;;13.90;2.87;;;6.20;99.90;;;;;;4955422;28;20042;-91
2023/03/15 10:25:03;;;;;;;9.10;3.10;;;6.40;99.90;;;;;;4955724;28;20038;-91
2023/03/15 10:27:56;;;;;;;9.40;2.40;;;6.60;99.90;;;;;;4954463;28;20078;-91
2023/03/15 10:30:27;;;;;;;10.83;2.60;;;6.80;99.90;;;;;;4955895;28;20046;-91
2023/03/15 10:33:15;;;;;;;6.37;2.30;;;6.70;99.90;;;;;;4955204;28;20510;-91
2023/03/15 10:35:43;;;;;;;7.27;2.60;;;6.80;99.90;;;;;;4956643;28;20031;-93
2023/03/15 10:38:14;;;;;;;9.57;2.70;;;7.00;99.90;;;;;;4953355;28;20036;-92
2023/03/15 10:40:52;;;;;;;5.93;2.23;;;7.10;99.90;;;;;;4956907;28;20050;-91
2023/03/15 10:43:35;;;;;;;7.73;2.13;;;7.40;99.90;;;;;;4949763;28;20043;-90
2023/03/15 10:46:05;;;;;;;5.67;2.10;;;7.40;99.90;;;;;;4954893;28;20076;-90
2023/03/15 10:48:50;;;;;;;5.80;2.03;;;7.30;99.90;;;;;;4953997;28;20498;-92
2023/03/15 10:51:23;;;;;;;7.78;2.33;;;7.40;99.90;;;;;;4956033;28;20031;-91
2023/03/15 10:53:58;;;;;;;12.83;2.43;;;7.70;99.90;;;;;;4952998;28;20509;-90
2023/03/15 10:56:25;;;;;;;;;;;7.80;99.90;;;;;;4955325;28;20055;-91
2023/03/15 10:58:53;;;;;;;6.90;1.80;;;8.10;99.90;;;;;;4952668;28;19988;-92
2023/03/15 11:01:27;;;;;;;5.00;1.80;;;8.20;99.90;;;;;;4955390;28;20054;-92
2023/03/15 11:04:04;;;;;;;7.13;2.00;;;8.20;99.90;;;;;;4954666;28;20370;-93
2023/03/15 11:06:47;;;;;;;6.87;1.83;;;7.90;99.90;;;;;;4957118;28;20058;-89
2023/03/15 11:09:22;;;;;;;6.53;1.87;;;7.70;99.90;;;;;;4957805;28;20110;-88
2023/03/15 11:12:00;;;;;;;3.78;1.58;;;7.70;99.90;;;;;;4956434;28;20027;-90
2023/03/15 11:14:36;;;;;;;5.30;1.70;;;7.80;99.90;;;;;;4957726;28;20057;-90
2023/03/15 11:17:04;;;;;;;3.80;1.80;;;7.80;99.90;;;;;;4918849;28;20494;-90
2023/03/15 11:19:33;;;;;;;5.10;1.70;;;7.50;99.90;;;;;;4916165;28;20482;-90
2023/03/15 11:22:00;;;;;;;6.17;1.70;;;7.20;99.90;;;;;;4913152;28;20077;-89
2023/03/15 11:24:30;;;;;;;6.60;1.60;;;7.10;99.90;;;;;;4913218;28;20090;-88
2023/03/15 11:27:10;;;;;;;6.83;1.60;;;6.80;99.90;;;;;;4911073;28;20027;-91
2023/03/15 11:29:37;;;;;;;7.70;1.60;;;6.70;99.90;;;;;;4914663;28;20016;-90
2023/03/15 11:32:30;;;;;;;6.60;1.30;;;6.80;99.90;;;;;;4915053;28;20047;-88
2023/03/15 11:35:11;;;;;;;5.07;1.30;;;6.90;99.90;;;;;;4912985;28;21475;-90
2023/03/15 11:37:39;;;;;;;5.53;1.40;;;6.80;99.90;;;;;;4908496;28;20046;-90
2023/03/15 11:40:17;;;;;;;7.30;1.30;;;6.60;99.90;;;;;;4916762;28;20031;-89
2023/03/15 11:42:48;;;;;;;3.93;1.20;;;6.60;99.90;;;;;;4914179;28;20053;-90
2023/03/15 11:45:27;;;;;;;2.13;1.20;;;6.90;99.90;;;;;;4934308;28;21715;-93
2023/03/15 11:47:58;;;;;;;4.97;1.50;;;7.20;99.90;;;;;;4954414;28;20050;-92
2023/03/15 11:50:24;;;;;;;7.77;1.20;;;7.40;99.90;;;;;;4957251;28;20039;-91
2023/03/15 11:52:50;;;;;;;4.47;1.20;;;7.70;99.90;;;;;;4956246;28;20355;-90
2023/03/15 11:55:23;;;;;;;4.53;1.37;;;8.10;99.90;;;;;;4957153;28;21596;-91
2023/03/15 11:57:50;;;;;;;3.80;1.30;;;8.40;99.90;;;;;;4955935;28;20034;-91
2023/03/15 12:00:44;;;;;;;3.43;1.57;;;8.70;99.90;;;;;;4956198;28;20031;-90
2023/03/15 12:03:36;;;;;;;4.03;1.00;;;8.90;99.90;;;;;;4953822;28;20043;-91
2023/03/15 12:06:16;;;;;;;3.50;1.20;;;9.00;99.90;;;;;;4952710;28;20038;-90
2023/03/15 12:08:53;;;;;;;7.17;1.97;;;9.00;99.90;;;;;;4954219;28;20039;-92
2023/03/15 12:11:21;;;;;;;4.73;1.30;;;8.80;99.90;;;;;;4953986;28;20050;-92
2023/03/15 12:13:56;;;;;;;4.30;1.50;;;8.70;99.90;;;;;;4953915;28;20054;-91
2023/03/15 12:16:24;;;;;;;4.50;1.35;;;8.70;99.90;;;;;;4953501;28;20047;-89
2023/03/15 12:18:55;;;;;;;3.13;1.30;;;9.00;99.90;;;;;;4952910;28;20042;-90
2023/03/15 12:21:31;;;;;;;3.83;1.10;;;9.30;99.90;;;;;;4953422;28;20039;-88
2023/03/15 12:24:04;;;;;;;;;;;10.00;99.90;;;;;;4952720;28;20185;-90
2023/03/15 12:26:57;;;;;;;2.20;1.00;;;10.40;99.90;;;;;;4955375;28;19913;-90
2023/03/15 12:29:25;;;;;;;3.47;1.40;;;10.30;99.90;;;;;;4958750;28;20030;-90
2023/03/15 12:32:03;;;;;;;5.10;1.40;;;9.60;99.90;;;;;;4959157;28;20409;-90
2023/03/15 12:34:54;;;;;;;3.97;1.60;;;8.90;99.90;;;;;;4958819;28;20130;-92
2023/03/15 12:37:24;;;;;;;3.47;1.07;;;8.40;99.90;;;;;;4958509;28;20055;-90
2023/03/15 12:39:59;;;;;;;2.40;1.10;;;8.00;99.90;;;;;;4957397;28;20058;-86
2023/03/15 12:42:30;;;;;;;7.28;1.40;;;7.70;99.90;;;;;;4958299;28;20122;-91
2023/03/15 12:45:14;;;;;;;3.17;1.20;;;7.40;99.90;;;;;;4956151;28;20027;-84
2023/03/15 12:47:49;;;;;;;2.47;1.10;;;7.20;99.90;;;;;;4956994;28;20035;-84
2023/03/15 12:50:41;;;;;;;4.88;1.20;;;7.20;99.90;;;;;;4956705;28;20101;-88
2023/03/15 12:53:36;;;;;;;3.47;1.30;;;7.30;99.90;;;;;;4957781;28;20157;-84
2023/03/15 12:56:26;;;;;;;2.77;1.40;;;7.30;99.90;;;;;;4958169;28;20053;-84
2023/03/15 12:58:58;;;;;;;4.90;1.50;;;7.40;99.90;;;;;;4957143;28;20061;-87
2023/03/15 13:01:24;;;;;;;2.63;1.10;;;7.40;99.90;;;;;;4959938;28;20145;-88
2023/03/15 13:03:57;;;;;;;4.03;1.50;;;7.40;99.90;;;;;;4959038;28;20019;-88
2023/03/15 13:07:17;;;;;;;2.97;1.27;;;7.30;99.90;;;;;;4958951;28;21184;-82
2023/03/15 13:09:56;;;;;;;3.43;1.40;;;7.30;99.90;;;;;;4903982;29;20523;-82
2023/03/15 13:12:33;;;;;;;3.70;1.00;;;7.30;99.90;;;;;;4949326;28;20047;-82